首页
METAR-TAF:

METAR-TAF

机场 :

克羅托內, 意大利

纬度: 39-00N, 经度: 017-04E, 海拔: 155米

当前天气观测

该预报发布于1小时和3分钟前的08:50 UTC
风速10节,风向,在北转西北东北之间变化
温度 23°C
湿度 73%
气压 1022 hPa
能见度10公里或以上
1500米以下无云,无积雨云

METAR: LIBC 220850Z 01010KT 340V040 CAVOK 23/18 Q1022

时间: 11:53 (09:53 UTC)

预报

该预报发布于4小时和53分钟前的05:00 UTC
预报有效从22日的 06点(UTC)到 23日的 06点(UTC)
风速10节,风向北转东北
能见度10公里或以上
1500米以下无云,无积雨云

TAF: LIBC 220500Z 2206/2306 03010KT CAVOK

超过4000个机场的气象观测和天气预报(METAR&TAF报告)。

可查询的气象台以黄色和红色小点在地图上表示。

将鼠标移到小点上方,可查看气象台名称。

然后点击查看天气观测和预报。

如需切换地图:点击带黑十字的绿色按钮放大地图;点击带横线的绿色按钮缩小地图;或者点击绿色箭头查看邻近地区的地图。


METAR-TAF: